createdAt,value
2023-05-14T00:01:37.737Z,64.60
2023-05-14T00:06:39.920Z,66.04
2023-05-14T00:11:41.700Z,67.64
2023-05-14T00:16:43.480Z,68.14
2023-05-14T00:21:47.102Z,67.67
2023-05-14T00:26:48.822Z,66.46
2023-05-14T00:31:50.789Z,67.53
2023-05-14T00:36:53.240Z,67.40
2023-05-14T00:41:55.424Z,66.92
2023-05-14T00:46:58.740Z,67.10
2023-05-14T00:52:01.162Z,67.26
2023-05-14T00:57:05.752Z,68.53
2023-05-14T01:02:07.659Z,68.48
2023-05-14T01:07:46.998Z,69.26
2023-05-14T01:13:13.760Z,70.42
2023-05-14T01:18:19.023Z,70.85
2023-05-14T01:23:20.790Z,70.86
2023-05-14T01:28:32.509Z,70.29
2023-05-14T01:33:36.636Z,69.07
2023-05-14T01:38:39.408Z,68.61
2023-05-14T01:43:41.917Z,68.79
2023-05-14T01:48:43.696Z,68.89
2023-05-14T01:53:45.887Z,68.83
2023-05-14T01:58:47.659Z,69.50
2023-05-14T02:03:49.464Z,70.21
2023-05-14T02:08:51.408Z,70.29
2023-05-14T02:13:53.083Z,70.48
2023-05-14T02:18:54.876Z,70.00
2023-05-14T02:23:57.049Z,69.91
2023-05-14T02:28:58.902Z,71.19
2023-05-14T02:34:02.341Z,71.43
2023-05-14T02:39:05.028Z,71.47
2023-05-14T02:44:06.714Z,71.63
2023-05-14T02:49:08.791Z,71.32
2023-05-14T02:54:10.667Z,71.65
2023-05-14T02:59:12.545Z,71.44
2023-05-14T03:04:15.341Z,70.74
2023-05-14T03:09:17.123Z,71.14
2023-05-14T03:14:19.015Z,71.08
2023-05-14T03:19:20.879Z,71.51
2023-05-14T03:24:22.652Z,72.59
2023-05-14T03:29:24.450Z,72.72
2023-05-14T03:34:26.305Z,73.72
2023-05-14T03:39:28.078Z,74.29
2023-05-14T03:44:29.851Z,75.12
2023-05-14T03:49:31.800Z,74.55
2023-05-14T03:54:33.711Z,74.15
2023-05-14T03:59:35.488Z,73.72
2023-05-14T04:04:37.425Z,73.22
2023-05-14T04:09:39.342Z,74.16
2023-05-14T04:14:41.335Z,74.63
2023-05-14T04:19:43.096Z,75.44
2023-05-14T04:24:44.788Z,75.61
2023-05-14T04:29:50.312Z,75.19
2023-05-14T04:34:52.106Z,73.89
2023-05-14T04:39:53.979Z,73.32
2023-05-14T04:44:55.862Z,72.53
2023-05-14T04:49:57.960Z,72.07
2023-05-14T04:54:59.712Z,71.29
2023-05-14T05:00:05.176Z,70.76
2023-05-14T05:05:08.508Z,70.66
2023-05-14T05:10:10.599Z,69.71
2023-05-14T05:15:16.076Z,69.24
2023-05-14T05:20:18.771Z,68.44
2023-05-14T05:25:23.475Z,67.57
2023-05-14T05:30:25.708Z,66.91
2023-05-14T05:35:27.854Z,66.30
2023-05-14T05:40:30.131Z,66.25
2023-05-14T05:45:32.050Z,65.92
2023-05-14T05:50:33.890Z,64.81
2023-05-14T05:55:36.174Z,64.15
2023-05-14T06:00:37.963Z,63.81
2023-05-14T06:05:40.541Z,62.76
2023-05-14T06:10:42.532Z,61.74
2023-05-14T06:15:44.412Z,60.76
2023-05-14T06:20:46.386Z,59.47
2023-05-14T06:25:50.864Z,57.96
2023-05-14T06:30:55.774Z,56.17
2023-05-14T06:36:05.180Z,55.60
2023-05-14T06:41:07.101Z,55.20
2023-05-14T06:46:08.975Z,53.73
2023-05-14T06:51:12.806Z,52.74
2023-05-14T06:56:14.726Z,52.14
2023-05-14T07:01:17.130Z,50.07
2023-05-14T07:06:19.252Z,49.83
2023-05-14T07:11:21.747Z,48.12
2023-05-14T07:16:23.580Z,46.87
2023-05-14T07:21:26.525Z,44.83
2023-05-14T07:26:28.404Z,43.76
2023-05-14T07:31:30.521Z,43.31
2023-05-14T07:36:33.283Z,42.28
2023-05-14T07:41:35.174Z,41.53
2023-05-14T07:46:37.041Z,40.48
2023-05-14T07:51:38.924Z,37.69
2023-05-14T07:56:40.896Z,36.62
2023-05-14T08:01:42.788Z,35.87
2023-05-14T08:06:44.966Z,35.64
2023-05-14T08:11:46.948Z,34.92
2023-05-14T08:16:49.158Z,34.81
2023-05-14T08:21:51.216Z,34.76
2023-05-14T08:26:53.103Z,34.10
2023-05-14T08:31:54.981Z,33.19
2023-05-14T08:36:56.949Z,33.62
2023-05-14T08:42:01.598Z,33.22
2023-05-14T08:47:04.283Z,32.49
2023-05-14T08:52:08.100Z,32.03
2023-05-14T08:57:10.910Z,31.80
2023-05-14T09:02:16.361Z,30.67
2023-05-14T09:07:18.458Z,30.41
2023-05-14T09:12:21.656Z,30.72
2023-05-14T09:17:27.385Z,30.47
2023-05-14T09:22:33.093Z,29.92
2023-05-14T09:27:36.094Z,29.02
2023-05-14T09:32:41.990Z,29.24
2023-05-14T09:37:47.244Z,29.01
2023-05-14T09:42:50.020Z,28.89
2023-05-14T09:47:52.978Z,27.68
2023-05-14T09:52:55.719Z,26.90
2023-05-14T09:57:57.592Z,26.94
2023-05-14T10:03:06.451Z,27.00
2023-05-14T10:08:37.312Z,27.08
2023-05-14T10:13:49.775Z,27.63
2023-05-14T10:18:57.849Z,27.30
2023-05-14T10:24:00.436Z,26.71
2023-05-14T10:29:02.832Z,25.06
2023-05-14T10:34:43.721Z,24.67
2023-05-14T10:40:18.867Z,24.32
2023-05-14T10:45:22.712Z,24.36
2023-05-14T10:50:26.411Z,24.32
2023-05-14T10:55:29.118Z,24.12
2023-05-14T11:00:34.987Z,23.99
2023-05-14T11:05:38.807Z,24.01
2023-05-14T11:10:42.844Z,23.16
2023-05-14T11:15:47.691Z,22.45
2023-05-14T11:20:49.473Z,22.76
2023-05-14T11:25:53.756Z,24.01
2023-05-14T11:30:55.989Z,25.01
2023-05-14T11:35:57.860Z,24.19
2023-05-14T11:40:59.965Z,24.31
2023-05-14T11:46:02.071Z,24.49
2023-05-14T11:51:04.520Z,25.43
2023-05-14T11:56:08.284Z,26.42
2023-05-14T12:01:13.907Z,27.08
2023-05-14T12:06:15.888Z,26.54
2023-05-14T12:11:20.941Z,25.94
2023-05-14T12:16:22.900Z,25.44
2023-05-14T12:21:27.460Z,23.24
2023-05-14T12:26:33.653Z,23.74
2023-05-14T12:31:36.340Z,24.74
2023-05-14T12:36:38.533Z,24.55
2023-05-14T12:41:40.392Z,25.01
2023-05-14T12:46:42.410Z,25.00
2023-05-14T12:51:45.169Z,25.19
2023-05-14T12:56:47.050Z,25.16
2023-05-14T13:01:48.960Z,27.07
2023-05-14T13:06:50.856Z,26.18
2023-05-14T13:11:53.299Z,24.08
2023-05-14T13:16:55.532Z,23.74
2023-05-14T13:21:57.462Z,23.58
2023-05-14T13:26:59.271Z,22.91
2023-05-14T13:32:01.522Z,22.33
2023-05-14T13:37:03.843Z,22.48
2023-05-14T13:42:06.310Z,23.07
2023-05-14T13:47:08.282Z,23.68
2023-05-14T13:52:10.058Z,23.42
2023-05-14T13:57:11.757Z,22.27
2023-05-14T14:02:14.841Z,21.76
2023-05-14T14:07:16.619Z,21.42
2023-05-14T14:12:18.521Z,21.00
2023-05-14T14:17:20.578Z,20.42
2023-05-14T14:22:23.171Z,20.44
2023-05-14T14:27:27.316Z,19.64
2023-05-14T14:32:29.175Z,19.68
2023-05-14T14:37:31.001Z,19.92
2023-05-14T14:42:34.792Z,20.93
2023-05-14T14:47:36.795Z,21.72
2023-05-14T14:52:40.502Z,22.53
2023-05-14T14:57:42.259Z,21.99
2023-05-14T15:02:44.111Z,21.15
2023-05-14T15:07:46.329Z,20.48
2023-05-14T15:12:48.406Z,19.28
2023-05-14T15:17:50.611Z,19.15
2023-05-14T15:22:55.242Z,19.25
2023-05-14T15:27:57.205Z,19.99
2023-05-14T15:32:59.140Z,20.58
2023-05-14T15:38:01.065Z,21.65
2023-05-14T15:43:03.414Z,21.85
2023-05-14T15:48:05.905Z,22.20
2023-05-14T15:53:08.441Z,22.09
2023-05-14T15:58:12.356Z,21.57
2023-05-14T16:03:14.337Z,20.85
2023-05-14T16:08:16.334Z,20.48
2023-05-14T16:13:19.123Z,20.30
2023-05-14T16:18:21.708Z,20.31
2023-05-14T16:23:23.691Z,20.32
2023-05-14T16:28:25.668Z,20.41
2023-05-14T16:33:27.545Z,21.25
2023-05-14T16:38:29.433Z,21.26
2023-05-14T16:43:31.212Z,21.54
2023-05-14T16:48:33.120Z,21.66
2023-05-14T16:53:35.765Z,21.78
2023-05-14T16:58:37.754Z,22.02
2023-05-14T17:03:40.338Z,22.42
2023-05-14T17:08:42.233Z,22.75
2023-05-14T17:13:44.196Z,23.36
2023-05-14T17:18:48.765Z,23.66
2023-05-14T17:23:50.717Z,23.87
2023-05-14T17:28:52.600Z,24.06
2023-05-14T17:33:55.197Z,24.27
2023-05-14T17:38:57.691Z,24.63
2023-05-14T17:43:59.784Z,25.10
2023-05-14T17:49:01.969Z,25.47
2023-05-14T17:54:04.155Z,26.04
2023-05-14T17:59:06.735Z,26.40
2023-05-14T18:04:08.666Z,26.83
2023-05-14T18:09:10.933Z,27.33
2023-05-14T18:14:12.975Z,28.22
2023-05-14T18:19:15.317Z,29.12
2023-05-14T18:24:17.673Z,29.58
2023-05-14T18:29:19.566Z,30.51
2023-05-14T18:34:21.474Z,31.72
2023-05-14T18:39:23.426Z,32.76
2023-05-14T18:44:25.311Z,33.44
2023-05-14T18:49:27.368Z,34.13
2023-05-14T18:54:29.356Z,34.44
2023-05-14T18:59:31.530Z,35.21
2023-05-14T19:04:44.271Z,35.74
2023-05-14T19:09:52.790Z,35.83
2023-05-14T19:14:54.862Z,36.53
2023-05-14T19:19:56.966Z,36.51
2023-05-14T19:24:58.932Z,37.40
2023-05-14T19:30:01.033Z,38.04
2023-05-14T19:35:05.180Z,37.82
2023-05-14T19:40:08.582Z,38.38
2023-05-14T19:45:11.147Z,38.86
2023-05-14T19:50:13.133Z,39.64
2023-05-14T19:55:15.111Z,40.77
2023-05-14T20:00:17.611Z,41.38
2023-05-14T20:05:19.695Z,42.68
2023-05-14T20:10:21.649Z,43.26
2023-05-14T20:15:23.645Z,43.43
2023-05-14T20:20:27.097Z,43.96
2023-05-14T20:25:32.240Z,45.01
2023-05-14T20:30:34.631Z,45.19
2023-05-14T20:35:36.730Z,45.51
2023-05-14T20:40:38.874Z,44.67
2023-05-14T20:45:41.266Z,45.59
2023-05-14T20:50:43.920Z,45.92
2023-05-14T20:55:45.742Z,45.31
2023-05-14T21:00:47.719Z,46.76
2023-05-14T21:05:49.559Z,47.15
2023-05-14T21:10:51.272Z,47.40
2023-05-14T21:15:53.194Z,46.26
2023-05-14T21:20:55.222Z,47.26
2023-05-14T21:25:57.528Z,47.72
2023-05-14T21:30:59.356Z,46.24
2023-05-14T21:36:01.513Z,46.42
2023-05-14T21:41:03.361Z,48.49
2023-05-14T21:46:05.145Z,49.63
2023-05-14T21:51:07.510Z,50.54
2023-05-14T21:56:09.599Z,51.08
2023-05-14T22:01:11.501Z,52.13
2023-05-14T22:06:13.657Z,51.84
2023-05-14T22:11:15.544Z,52.33
2023-05-14T22:16:17.232Z,52.91
2023-05-14T22:21:19.187Z,53.67
2023-05-14T22:26:23.656Z,53.35
2023-05-14T22:31:25.432Z,53.35
2023-05-14T22:36:27.479Z,53.40
2023-05-14T22:41:29.475Z,54.07
2023-05-14T22:46:31.255Z,54.79
2023-05-14T22:51:33.227Z,54.87
2023-05-14T22:56:35.508Z,55.60
2023-05-14T23:01:37.448Z,56.07
2023-05-14T23:06:39.781Z,55.98
2023-05-14T23:11:41.559Z,55.58
2023-05-14T23:16:43.948Z,55.48
2023-05-14T23:21:46.029Z,55.78
2023-05-14T23:26:47.917Z,57.08
2023-05-14T23:31:50.451Z,57.03
2023-05-14T23:36:52.882Z,56.83
2023-05-14T23:41:54.755Z,57.06
2023-05-14T23:46:56.528Z,57.00
2023-05-14T23:51:58.304Z,58.67
2023-05-14T23:57:02.702Z,59.79
